createdAt,value
2023-03-25T00:03:01.550Z,99538.66
2023-03-25T00:08:04.642Z,99536.88
2023-03-25T00:13:08.829Z,99542.63
2023-03-25T00:18:11.543Z,99544.94
2023-03-25T00:23:14.294Z,99533.13
2023-03-25T00:28:18.433Z,99534.97
2023-03-25T00:33:22.715Z,99533.19
2023-03-25T00:38:33.742Z,99516.19
2023-03-25T00:43:38.342Z,99516.38
2023-03-25T00:48:42.000Z,99518.91
2023-03-25T00:53:44.921Z,99516.28
2023-03-25T00:58:49.212Z,99515.59
2023-03-25T01:03:57.740Z,99525.84
2023-03-25T01:09:02.427Z,99514.31
2023-03-25T01:14:08.262Z,99513.69
2023-03-25T01:19:11.360Z,99516.84
2023-03-25T01:24:15.545Z,99511.09
2023-03-25T01:29:21.493Z,99502.88
2023-03-25T01:34:24.448Z,99491.66
2023-03-25T01:39:28.518Z,99495.06
2023-03-25T01:45:09.881Z,99492.66
2023-03-25T01:50:15.510Z,99489.25
2023-03-25T01:55:20.262Z,99484.03
2023-03-25T02:00:23.451Z,99491.63
2023-03-25T02:05:35.838Z,99482.66
2023-03-25T02:10:38.675Z,99479.16
2023-03-25T02:15:59.400Z,99477.63
2023-03-25T02:21:46.016Z,99477.16
2023-03-25T02:27:27.656Z,99463.53
2023-03-25T02:32:48.223Z,99467.84
2023-03-25T02:38:13.333Z,99457.69
2023-03-25T02:43:24.404Z,99444.22
2023-03-25T02:48:33.873Z,99455.84
2023-03-25T02:53:41.020Z,99448.22
2023-03-25T02:58:46.944Z,99441.97
2023-03-25T03:03:49.888Z,99431.53
2023-03-25T03:09:12.709Z,99429.72
2023-03-25T03:14:34.090Z,99424.34
2023-03-25T03:19:41.935Z,99428.63
2023-03-25T03:24:51.304Z,99425.22
2023-03-25T03:29:58.533Z,99424.59
2023-03-25T03:35:05.704Z,99436.22
2023-03-25T03:40:14.594Z,99438.78
2023-03-25T03:45:23.245Z,99430.78
2023-03-25T03:50:29.038Z,99424.00
2023-03-25T03:55:39.116Z,99429.00
2023-03-25T04:00:49.798Z,99426.19
2023-03-25T04:05:58.777Z,99427.72
2023-03-25T04:11:09.049Z,99421.09
2023-03-25T04:16:12.464Z,99422.75
2023-03-25T04:21:17.683Z,99424.31
2023-03-25T04:26:21.931Z,99420.03
2023-03-25T04:31:25.935Z,99434.09
2023-03-25T04:36:29.743Z,99454.56
2023-03-25T04:41:33.958Z,99463.66
2023-03-25T04:46:37.832Z,99436.75
2023-03-25T04:51:41.891Z,99423.88
2023-03-25T04:56:47.587Z,99417.69
2023-03-25T05:01:50.497Z,99432.34
2023-03-25T05:06:53.532Z,99439.00
2023-03-25T05:11:57.737Z,99435.97
2023-03-25T05:17:00.598Z,99441.19
2023-03-25T05:22:04.677Z,99449.81
2023-03-25T05:27:08.962Z,99452.72
2023-03-25T05:32:13.731Z,99445.91
2023-03-25T05:37:16.593Z,99448.75
2023-03-25T05:42:22.895Z,99456.25
2023-03-25T05:47:28.800Z,99455.47
2023-03-25T05:52:31.632Z,99473.94
2023-03-25T05:57:36.305Z,99462.47
2023-03-25T06:02:39.738Z,99459.50
2023-03-25T06:07:43.705Z,99465.00
2023-03-25T06:12:48.832Z,99464.94
2023-03-25T06:17:51.580Z,99470.16
2023-03-25T06:22:54.333Z,99481.09
2023-03-25T06:28:03.245Z,99478.19
2023-03-25T06:33:06.373Z,99487.50
2023-03-25T06:38:10.760Z,99487.34
2023-03-25T06:43:36.853Z,99485.22
2023-03-25T06:49:05.388Z,99482.13
2023-03-25T06:54:08.162Z,99485.63
2023-03-25T06:59:12.291Z,99486.88
2023-03-25T07:04:15.008Z,99482.28
2023-03-25T07:09:17.896Z,99491.19
2023-03-25T07:14:22.042Z,99497.28
2023-03-25T07:19:24.879Z,99492.91
2023-03-25T07:24:27.836Z,99490.16
2023-03-25T07:29:32.033Z,99489.47
2023-03-25T07:34:34.909Z,99480.69
2023-03-25T07:39:37.977Z,99487.75
2023-03-25T07:44:42.143Z,99490.75
2023-03-25T07:49:46.781Z,99487.38
2023-03-25T07:54:49.567Z,99482.59
2023-03-25T07:59:53.809Z,99478.31
2023-03-25T08:04:57.430Z,99487.94
2023-03-25T08:10:00.370Z,99490.88
2023-03-25T08:15:04.863Z,99493.44
2023-03-25T08:20:09.206Z,99494.16
2023-03-25T08:25:13.134Z,99491.97
2023-03-25T08:30:17.661Z,99490.03
2023-03-25T08:35:20.842Z,99489.84
2023-03-25T08:40:23.621Z,99490.91
2023-03-25T08:45:28.044Z,99488.09
2023-03-25T08:50:31.505Z,99494.81
2023-03-25T08:55:34.431Z,99490.56
2023-03-25T09:00:38.977Z,99512.59
2023-03-25T09:05:41.767Z,99504.34
2023-03-25T09:10:44.665Z,99510.09
2023-03-25T09:15:48.898Z,99526.88
2023-03-25T09:20:52.006Z,99523.09
2023-03-25T09:25:54.801Z,99521.28
2023-03-25T09:30:59.122Z,99510.69
2023-03-25T09:36:02.321Z,99514.44
2023-03-25T09:41:17.693Z,99508.91
2023-03-25T09:46:22.605Z,99516.59
2023-03-25T09:51:29.244Z,99516.47
2023-03-25T09:56:42.410Z,99515.59
2023-03-25T10:01:57.662Z,99516.19
2023-03-25T10:07:13.096Z,99510.56
2023-03-25T10:12:33.433Z,99508.81
2023-03-25T10:17:47.158Z,99509.78
2023-03-25T10:23:04.237Z,99517.53
2023-03-25T10:28:11.597Z,99523.63
2023-03-25T10:33:24.594Z,99522.25
2023-03-25T10:38:30.157Z,99512.13
2023-03-25T10:43:36.120Z,99506.03
2023-03-25T10:48:41.011Z,99508.44
2023-03-25T10:53:47.850Z,99509.69
2023-03-25T10:58:53.742Z,99498.06
2023-03-25T11:04:00.917Z,99512.41
2023-03-25T11:09:18.647Z,99526.31
2023-03-25T11:14:24.381Z,99539.44
2023-03-25T11:19:31.989Z,99544.50
2023-03-25T11:24:41.002Z,99547.25
2023-03-25T11:29:52.880Z,99550.59
2023-03-25T11:34:57.058Z,99531.91
2023-03-25T11:40:06.765Z,99528.94
2023-03-25T11:45:21.422Z,99526.34
2023-03-25T11:50:28.018Z,99512.94
2023-03-25T11:55:33.425Z,99516.38
2023-03-25T12:00:42.304Z,99505.81
2023-03-25T12:05:59.470Z,99501.72
2023-03-25T12:11:07.930Z,99500.06
2023-03-25T12:16:24.732Z,99497.72
2023-03-25T12:21:43.173Z,99500.81
2023-03-25T12:26:55.804Z,99488.97
2023-03-25T12:32:11.349Z,99469.81
2023-03-25T12:37:26.529Z,99467.41
2023-03-25T12:42:38.147Z,99470.78
2023-03-25T12:47:44.140Z,99481.69
2023-03-25T12:52:57.336Z,99478.63
2023-03-25T12:58:24.272Z,99476.81
2023-03-25T13:03:45.219Z,99471.88
2023-03-25T13:08:55.810Z,99474.31
2023-03-25T13:14:03.542Z,99481.63
2023-03-25T13:19:11.129Z,99481.13
2023-03-25T13:24:18.850Z,99499.28
2023-03-25T13:29:29.024Z,99491.06
2023-03-25T13:34:37.648Z,99494.66
2023-03-25T13:39:55.397Z,99479.75
2023-03-25T13:44:59.847Z,99485.66
2023-03-25T13:50:08.458Z,99482.72
2023-03-25T13:55:16.900Z,99468.78
2023-03-25T14:00:44.932Z,99465.44
2023-03-25T14:06:32.361Z,99469.53
2023-03-25T14:11:41.516Z,99484.38
2023-03-25T14:16:48.736Z,99483.16
2023-03-25T14:21:53.054Z,99488.34
2023-03-25T14:27:02.074Z,99488.72
2023-03-25T14:32:26.729Z,99495.88
2023-03-25T14:37:31.092Z,99487.97
2023-03-25T14:42:59.564Z,99489.72
2023-03-25T14:48:04.648Z,99491.03
2023-03-25T14:53:14.331Z,99488.91
2023-03-25T14:58:22.003Z,99487.69
2023-03-25T15:03:34.157Z,99491.13
2023-03-25T15:08:39.549Z,99492.75
2023-03-25T15:13:52.632Z,99495.66
2023-03-25T15:19:11.777Z,99476.50
2023-03-25T15:24:21.734Z,99481.31
2023-03-25T15:29:58.675Z,99458.44
2023-03-25T15:35:30.558Z,99443.63
2023-03-25T15:40:45.407Z,99438.56
2023-03-25T15:46:05.677Z,99433.97
2023-03-25T15:51:38.145Z,99426.25
2023-03-25T15:56:45.575Z,99409.81
2023-03-25T16:01:53.132Z,99427.81
2023-03-25T16:06:58.329Z,99430.88
2023-03-25T16:12:02.588Z,99406.09
2023-03-25T16:17:08.872Z,99429.38
2023-03-25T16:22:18.603Z,99443.06
2023-03-25T16:27:24.928Z,99454.38
2023-03-25T16:32:33.629Z,99477.91
2023-03-25T16:37:36.943Z,99489.97
2023-03-25T16:42:39.858Z,99477.38
2023-03-25T16:47:46.679Z,99475.06
2023-03-25T16:52:51.316Z,99462.53
2023-03-25T16:57:54.385Z,99479.03
2023-03-25T17:03:01.594Z,99481.84
2023-03-25T17:08:10.413Z,99470.47
2023-03-25T17:13:20.399Z,99434.69
2023-03-25T17:18:31.411Z,99443.25
2023-03-25T17:23:37.165Z,99441.69
2023-03-25T17:28:42.965Z,99441.63
2023-03-25T17:33:50.598Z,99433.59
2023-03-25T17:38:55.883Z,99448.59
2023-03-25T17:43:59.525Z,99438.00
2023-03-25T17:49:14.935Z,99439.78
2023-03-25T17:54:17.775Z,99447.88
2023-03-25T17:59:22.556Z,99443.66
2023-03-25T18:04:29.794Z,99434.72
2023-03-25T18:09:32.720Z,99437.19
2023-03-25T18:14:35.777Z,99435.78
2023-03-25T18:19:40.793Z,99439.66
2023-03-25T18:24:43.720Z,99435.31
2023-03-25T18:29:47.593Z,99436.69
2023-03-25T18:34:52.853Z,99446.91
2023-03-25T18:40:00.059Z,99458.75
2023-03-25T18:45:02.824Z,99464.22
2023-03-25T18:50:19.169Z,99465.00
2023-03-25T18:55:22.008Z,99472.22
2023-03-25T19:00:28.895Z,99472.06
2023-03-25T19:05:34.067Z,99482.03
2023-03-25T19:10:37.234Z,99493.97
2023-03-25T19:15:41.563Z,99498.28
2023-03-25T19:20:48.257Z,99506.03
2023-03-25T19:25:53.241Z,99512.50
2023-03-25T19:31:01.332Z,99509.06
2023-03-25T19:36:06.420Z,99513.69
2023-03-25T19:41:10.876Z,99516.47
2023-03-25T19:46:13.693Z,99533.19
2023-03-25T19:51:17.865Z,99525.22
2023-03-25T19:56:20.726Z,99531.56
2023-03-25T20:01:24.245Z,99528.91
2023-03-25T20:06:29.510Z,99536.81
2023-03-25T20:11:33.509Z,99538.78
2023-03-25T20:16:36.510Z,99551.19
2023-03-25T20:21:40.840Z,99552.72
2023-03-25T20:26:44.141Z,99560.13
2023-03-25T20:31:47.530Z,99556.94
2023-03-25T20:36:51.782Z,99550.25
2023-03-25T20:41:54.613Z,99568.69
2023-03-25T20:46:57.833Z,99566.72
2023-03-25T20:52:04.455Z,99580.00
2023-03-25T20:57:07.432Z,99591.19
2023-03-25T21:02:10.944Z,99593.16
2023-03-25T21:07:19.432Z,99599.63
2023-03-25T21:12:29.730Z,99604.88
2023-03-25T21:17:36.132Z,99603.16
2023-03-25T21:22:44.228Z,99612.69
2023-03-25T21:27:47.544Z,99617.16
2023-03-25T21:32:52.943Z,99627.34
2023-03-25T21:38:00.846Z,99630.94
2023-03-25T21:43:04.181Z,99623.03
2023-03-25T21:48:08.218Z,99632.38
2023-03-25T21:53:13.181Z,99625.47
2023-03-25T21:58:16.316Z,99627.41
2023-03-25T22:03:19.186Z,99637.84
2023-03-25T22:08:23.637Z,99641.53
2023-03-25T22:13:26.429Z,99652.91
2023-03-25T22:18:29.711Z,99651.09
2023-03-25T22:23:33.815Z,99659.19
2023-03-25T22:28:37.299Z,99660.94
2023-03-25T22:33:41.043Z,99662.66
2023-03-25T22:38:46.886Z,99675.50
2023-03-25T22:43:49.829Z,99671.88
2023-03-25T22:48:52.958Z,99686.75
2023-03-25T22:53:58.623Z,99684.53
2023-03-25T22:59:01.969Z,99684.31
2023-03-25T23:04:05.379Z,99696.38
2023-03-25T23:09:11.206Z,99695.34
2023-03-25T23:14:13.968Z,99706.22
2023-03-25T23:19:18.524Z,99707.19
2023-03-25T23:24:38.003Z,99710.44
2023-03-25T23:29:47.607Z,99724.56
2023-03-25T23:34:55.829Z,99726.28
2023-03-25T23:40:00.134Z,99735.16
2023-03-25T23:45:03.339Z,99750.75
2023-03-25T23:50:09.153Z,99749.44
2023-03-25T23:55:16.236Z,99756.69
